sensor_id;sensor_type;location;lat;lon;timestamp;P1;durP1;ratioP1;P2;durP2;ratioP2
71965;SDS011;59836;52.132;5.442;2022-07-19T00:02:00;7.47;;;5.00;;
71965;SDS011;59836;52.132;5.442;2022-07-19T00:04:27;7.47;;;5.25;;
71965;SDS011;59836;52.132;5.442;2022-07-19T00:06:54;7.68;;;5.25;;
71965;SDS011;59836;52.132;5.442;2022-07-19T00:09:21;7.78;;;4.85;;
71965;SDS011;59836;52.132;5.442;2022-07-19T00:11:48;6.30;;;4.82;;
71965;SDS011;59836;52.132;5.442;2022-07-19T00:14:15;7.80;;;5.30;;
71965;SDS011;59836;52.132;5.442;2022-07-19T00:16:42;7.43;;;4.80;;
71965;SDS011;59836;52.132;5.442;2022-07-19T00:19:08;9.13;;;5.78;;
71965;SDS011;59836;52.132;5.442;2022-07-19T00:21:35;7.30;;;5.45;;
71965;SDS011;59836;52.132;5.442;2022-07-19T00:24:02;6.72;;;5.80;;
71965;SDS011;59836;52.132;5.442;2022-07-19T00:26:28;7.43;;;5.83;;
71965;SDS011;59836;52.132;5.442;2022-07-19T00:28:56;7.60;;;5.85;;
71965;SDS011;59836;52.132;5.442;2022-07-19T00:31:23;8.70;;;5.47;;
71965;SDS011;59836;52.132;5.442;2022-07-19T00:33:50;6.70;;;5.43;;
71965;SDS011;59836;52.132;5.442;2022-07-19T00:36:17;8.52;;;5.47;;
71965;SDS011;59836;52.132;5.442;2022-07-19T00:38:44;7.73;;;5.27;;
71965;SDS011;59836;52.132;5.442;2022-07-19T00:41:12;10.32;;;5.47;;
71965;SDS011;59836;52.132;5.442;2022-07-19T00:43:39;5.82;;;4.68;;
71965;SDS011;59836;52.132;5.442;2022-07-19T00:46:13;6.63;;;4.32;;
71965;SDS011;59836;52.132;5.442;2022-07-19T00:48:41;5.80;;;4.22;;
71965;SDS011;59836;52.132;5.442;2022-07-19T00:51:09;8.83;;;4.80;;
71965;SDS011;59836;52.132;5.442;2022-07-19T00:53:37;6.82;;;4.53;;
71965;SDS011;59836;52.132;5.442;2022-07-19T00:56:06;6.22;;;4.40;;
71965;SDS011;59836;52.132;5.442;2022-07-19T00:58:33;5.70;;;4.05;;
71965;SDS011;59836;52.132;5.442;2022-07-19T01:01:02;6.97;;;4.72;;
71965;SDS011;59836;52.132;5.442;2022-07-19T01:03:31;7.87;;;4.57;;
71965;SDS011;59836;52.132;5.442;2022-07-19T01:06:01;5.95;;;5.30;;
71965;SDS011;59836;52.132;5.442;2022-07-19T01:08:28;6.47;;;4.63;;
71965;SDS011;59836;52.132;5.442;2022-07-19T01:10:54;7.18;;;5.40;;
71965;SDS011;59836;52.132;5.442;2022-07-19T01:13:20;8.05;;;5.93;;
71965;SDS011;59836;52.132;5.442;2022-07-19T01:15:47;8.70;;;5.80;;
71965;SDS011;59836;52.132;5.442;2022-07-19T01:18:14;9.65;;;6.25;;
71965;SDS011;59836;52.132;5.442;2022-07-19T01:20:40;8.13;;;6.20;;
71965;SDS011;59836;52.132;5.442;2022-07-19T01:23:07;8.70;;;6.55;;
71965;SDS011;59836;52.132;5.442;2022-07-19T01:25:34;10.63;;;6.80;;
71965;SDS011;59836;52.132;5.442;2022-07-19T01:28:03;7.83;;;5.93;;
71965;SDS011;59836;52.132;5.442;2022-07-19T01:30:31;8.93;;;6.13;;
71965;SDS011;59836;52.132;5.442;2022-07-19T01:32:58;9.18;;;6.35;;
71965;SDS011;59836;52.132;5.442;2022-07-19T01:35:25;7.50;;;6.10;;
71965;SDS011;59836;52.132;5.442;2022-07-19T01:37:53;7.68;;;6.85;;
71965;SDS011;59836;52.132;5.442;2022-07-19T01:40:19;8.03;;;7.10;;
71965;SDS011;59836;52.132;5.442;2022-07-19T01:42:46;9.45;;;7.45;;
71965;SDS011;59836;52.132;5.442;2022-07-19T01:45:14;9.35;;;6.93;;
71965;SDS011;59836;52.132;5.442;2022-07-19T01:47:41;9.27;;;6.45;;
71965;SDS011;59836;52.132;5.442;2022-07-19T01:50:09;9.73;;;7.88;;
71965;SDS011;59836;52.132;5.442;2022-07-19T01:52:39;9.40;;;7.30;;
71965;SDS011;59836;52.132;5.442;2022-07-19T01:55:14;10.00;;;7.68;;
71965;SDS011;59836;52.132;5.442;2022-07-19T01:57:41;11.18;;;8.20;;
71965;SDS011;59836;52.132;5.442;2022-07-19T02:00:07;14.20;;;8.43;;
71965;SDS011;59836;52.132;5.442;2022-07-19T02:02:34;10.57;;;8.77;;
71965;SDS011;59836;52.132;5.442;2022-07-19T02:05:01;8.97;;;7.83;;
71965;SDS011;59836;52.132;5.442;2022-07-19T02:07:28;14.07;;;7.85;;
71965;SDS011;59836;52.132;5.442;2022-07-19T02:09:56;10.63;;;7.68;;
71965;SDS011;59836;52.132;5.442;2022-07-19T02:12:23;8.95;;;6.47;;
71965;SDS011;59836;52.132;5.442;2022-07-19T02:14:50;9.57;;;7.88;;
71965;SDS011;59836;52.132;5.442;2022-07-19T02:17:17;9.90;;;8.00;;
71965;SDS011;59836;52.132;5.442;2022-07-19T02:19:43;9.98;;;7.45;;
71965;SDS011;59836;52.132;5.442;2022-07-19T02:22:09;10.05;;;8.38;;
71965;SDS011;59836;52.132;5.442;2022-07-19T02:24:36;11.02;;;8.27;;
71965;SDS011;59836;52.132;5.442;2022-07-19T02:27:02;9.38;;;8.05;;
71965;SDS011;59836;52.132;5.442;2022-07-19T02:29:29;12.30;;;7.93;;
71965;SDS011;59836;52.132;5.442;2022-07-19T02:31:55;11.65;;;8.65;;
71965;SDS011;59836;52.132;5.442;2022-07-19T02:34:22;10.13;;;8.55;;
71965;SDS011;59836;52.132;5.442;2022-07-19T02:36:48;12.68;;;8.60;;
71965;SDS011;59836;52.132;5.442;2022-07-19T02:39:15;14.90;;;8.75;;
71965;SDS011;59836;52.132;5.442;2022-07-19T02:41:41;10.17;;;8.50;;
71965;SDS011;59836;52.132;5.442;2022-07-19T02:44:08;17.15;;;8.88;;
71965;SDS011;59836;52.132;5.442;2022-07-19T02:46:34;10.65;;;8.77;;
71965;SDS011;59836;52.132;5.442;2022-07-19T02:49:00;9.40;;;7.57;;
71965;SDS011;59836;52.132;5.442;2022-07-19T02:51:27;10.68;;;8.25;;
71965;SDS011;59836;52.132;5.442;2022-07-19T02:53:53;11.83;;;8.70;;
71965;SDS011;59836;52.132;5.442;2022-07-19T02:56:20;11.27;;;8.60;;
71965;SDS011;59836;52.132;5.442;2022-07-19T02:58:46;11.20;;;8.32;;
71965;SDS011;59836;52.132;5.442;2022-07-19T03:01:13;10.95;;;8.68;;
71965;SDS011;59836;52.132;5.442;2022-07-19T03:03:39;10.50;;;8.88;;
71965;SDS011;59836;52.132;5.442;2022-07-19T03:06:17;9.63;;;8.63;;
71965;SDS011;59836;52.132;5.442;2022-07-19T03:08:45;13.27;;;8.63;;
71965;SDS011;59836;52.132;5.442;2022-07-19T03:11:11;10.88;;;8.30;;
71965;SDS011;59836;52.132;5.442;2022-07-19T03:13:38;10.00;;;8.13;;
71965;SDS011;59836;52.132;5.442;2022-07-19T03:16:05;13.57;;;9.07;;
71965;SDS011;59836;52.132;5.442;2022-07-19T03:18:32;8.43;;;7.53;;
71965;SDS011;59836;52.132;5.442;2022-07-19T03:20:59;11.55;;;9.43;;
71965;SDS011;59836;52.132;5.442;2022-07-19T03:23:26;11.07;;;9.15;;
71965;SDS011;59836;52.132;5.442;2022-07-19T03:25:54;10.93;;;8.30;;
71965;SDS011;59836;52.132;5.442;2022-07-19T03:28:20;10.98;;;9.98;;
71965;SDS011;59836;52.132;5.442;2022-07-19T03:30:47;13.57;;;9.93;;
71965;SDS011;59836;52.132;5.442;2022-07-19T03:33:13;11.88;;;10.52;;
71965;SDS011;59836;52.132;5.442;2022-07-19T03:35:42;13.52;;;9.70;;
71965;SDS011;59836;52.132;5.442;2022-07-19T03:38:10;13.13;;;10.15;;
71965;SDS011;59836;52.132;5.442;2022-07-19T03:40:37;13.00;;;9.63;;
71965;SDS011;59836;52.132;5.442;2022-07-19T03:43:05;12.10;;;9.50;;
71965;SDS011;59836;52.132;5.442;2022-07-19T03:45:32;10.52;;;9.40;;
71965;SDS011;59836;52.132;5.442;2022-07-19T03:47:59;11.23;;;10.15;;
71965;SDS011;59836;52.132;5.442;2022-07-19T03:50:26;11.48;;;9.82;;
71965;SDS011;59836;52.132;5.442;2022-07-19T03:52:54;11.27;;;10.13;;
71965;SDS011;59836;52.132;5.442;2022-07-19T03:55:20;10.77;;;9.00;;
71965;SDS011;59836;52.132;5.442;2022-07-19T03:57:47;14.23;;;9.15;;
71965;SDS011;59836;52.132;5.442;2022-07-19T04:00:13;11.10;;;10.00;;
71965;SDS011;59836;52.132;5.442;2022-07-19T04:02:40;13.07;;;10.20;;
71965;SDS011;59836;52.132;5.442;2022-07-19T04:05:06;12.65;;;10.43;;
71965;SDS011;59836;52.132;5.442;2022-07-19T04:07:34;18.70;;;11.37;;
71965;SDS011;59836;52.132;5.442;2022-07-19T04:10:01;13.65;;;11.43;;
71965;SDS011;59836;52.132;5.442;2022-07-19T04:12:27;11.75;;;10.55;;
71965;SDS011;59836;52.132;5.442;2022-07-19T04:14:54;11.10;;;10.10;;
71965;SDS011;59836;52.132;5.442;2022-07-19T04:17:20;14.65;;;11.57;;
71965;SDS011;59836;52.132;5.442;2022-07-19T04:19:47;11.90;;;10.70;;
71965;SDS011;59836;52.132;5.442;2022-07-19T04:22:13;13.68;;;11.93;;
71965;SDS011;59836;52.132;5.442;2022-07-19T04:24:40;13.95;;;11.38;;
71965;SDS011;59836;52.132;5.442;2022-07-19T04:27:06;13.35;;;10.85;;
71965;SDS011;59836;52.132;5.442;2022-07-19T04:29:33;12.30;;;11.20;;
71965;SDS011;59836;52.132;5.442;2022-07-19T04:31:59;14.03;;;11.93;;
71965;SDS011;59836;52.132;5.442;2022-07-19T04:34:26;14.43;;;11.68;;
71965;SDS011;59836;52.132;5.442;2022-07-19T04:36:52;15.80;;;12.38;;
71965;SDS011;59836;52.132;5.442;2022-07-19T04:39:19;14.48;;;12.02;;
71965;SDS011;59836;52.132;5.442;2022-07-19T04:41:45;14.05;;;11.98;;
71965;SDS011;59836;52.132;5.442;2022-07-19T04:44:12;13.60;;;11.87;;
71965;SDS011;59836;52.132;5.442;2022-07-19T04:46:38;13.60;;;12.20;;
71965;SDS011;59836;52.132;5.442;2022-07-19T04:49:12;12.63;;;11.40;;
71965;SDS011;59836;52.132;5.442;2022-07-19T04:51:38;14.15;;;12.60;;
71965;SDS011;59836;52.132;5.442;2022-07-19T04:54:04;15.15;;;12.23;;
71965;SDS011;59836;52.132;5.442;2022-07-19T04:56:31;13.10;;;11.77;;
71965;SDS011;59836;52.132;5.442;2022-07-19T04:58:57;14.43;;;12.48;;
71965;SDS011;59836;52.132;5.442;2022-07-19T05:01:24;13.52;;;12.18;;
71965;SDS011;59836;52.132;5.442;2022-07-19T05:03:50;15.48;;;12.95;;
71965;SDS011;59836;52.132;5.442;2022-07-19T05:06:17;13.85;;;11.98;;
71965;SDS011;59836;52.132;5.442;2022-07-19T05:08:43;14.33;;;12.63;;
71965;SDS011;59836;52.132;5.442;2022-07-19T05:11:10;13.85;;;12.45;;
71965;SDS011;59836;52.132;5.442;2022-07-19T05:13:37;13.77;;;11.80;;
71965;SDS011;59836;52.132;5.442;2022-07-19T05:16:03;15.15;;;12.65;;
71965;SDS011;59836;52.132;5.442;2022-07-19T05:18:30;14.13;;;12.73;;
71965;SDS011;59836;52.132;5.442;2022-07-19T05:20:56;15.00;;;13.50;;
71965;SDS011;59836;52.132;5.442;2022-07-19T05:23:23;14.63;;;12.68;;
71965;SDS011;59836;52.132;5.442;2022-07-19T05:25:49;15.02;;;13.52;;
71965;SDS011;59836;52.132;5.442;2022-07-19T05:28:16;14.35;;;12.85;;
71965;SDS011;59836;52.132;5.442;2022-07-19T05:30:42;14.73;;;13.35;;
71965;SDS011;59836;52.132;5.442;2022-07-19T05:33:09;17.23;;;14.43;;
71965;SDS011;59836;52.132;5.442;2022-07-19T05:35:36;16.67;;;14.02;;
71965;SDS011;59836;52.132;5.442;2022-07-19T05:38:03;15.80;;;14.00;;
71965;SDS011;59836;52.132;5.442;2022-07-19T05:40:34;15.73;;;13.60;;
71965;SDS011;59836;52.132;5.442;2022-07-19T05:43:01;18.40;;;15.00;;
71965;SDS011;59836;52.132;5.442;2022-07-19T05:45:27;14.27;;;12.97;;
71965;SDS011;59836;52.132;5.442;2022-07-19T05:47:54;17.30;;;14.40;;
71965;SDS011;59836;52.132;5.442;2022-07-19T05:50:20;15.68;;;14.13;;
71965;SDS011;59836;52.132;5.442;2022-07-19T05:52:46;15.65;;;13.55;;
71965;SDS011;59836;52.132;5.442;2022-07-19T05:55:13;15.80;;;14.13;;
71965;SDS011;59836;52.132;5.442;2022-07-19T05:57:39;14.37;;;12.93;;
71965;SDS011;59836;52.132;5.442;2022-07-19T06:00:06;15.15;;;13.15;;
71965;SDS011;59836;52.132;5.442;2022-07-19T06:02:33;15.30;;;13.55;;
71965;SDS011;59836;52.132;5.442;2022-07-19T06:04:59;16.13;;;13.70;;
71965;SDS011;59836;52.132;5.442;2022-07-19T06:07:26;16.38;;;12.95;;
71965;SDS011;59836;52.132;5.442;2022-07-19T06:09:52;17.10;;;13.10;;
71965;SDS011;59836;52.132;5.442;2022-07-19T06:12:19;14.40;;;12.45;;
71965;SDS011;59836;52.132;5.442;2022-07-19T06:14:45;15.88;;;13.50;;
71965;SDS011;59836;52.132;5.442;2022-07-19T06:17:12;15.07;;;13.50;;
71965;SDS011;59836;52.132;5.442;2022-07-19T06:19:38;15.20;;;13.63;;
71965;SDS011;59836;52.132;5.442;2022-07-19T06:22:05;14.60;;;13.07;;
71965;SDS011;59836;52.132;5.442;2022-07-19T06:24:31;14.75;;;13.35;;
71965;SDS011;59836;52.132;5.442;2022-07-19T06:26:58;15.85;;;12.60;;
71965;SDS011;59836;52.132;5.442;2022-07-19T06:29:24;12.57;;;11.32;;
71965;SDS011;59836;52.132;5.442;2022-07-19T06:31:51;12.93;;;10.90;;
71965;SDS011;59836;52.132;5.442;2022-07-19T06:34:17;13.77;;;11.10;;
71965;SDS011;59836;52.132;5.442;2022-07-19T06:36:43;13.88;;;12.48;;
71965;SDS011;59836;52.132;5.442;2022-07-19T06:39:10;14.25;;;12.82;;
71965;SDS011;59836;52.132;5.442;2022-07-19T06:41:36;15.35;;;12.38;;
71965;SDS011;59836;52.132;5.442;2022-07-19T06:44:03;13.82;;;12.15;;
71965;SDS011;59836;52.132;5.442;2022-07-19T06:46:30;13.67;;;11.47;;
71965;SDS011;59836;52.132;5.442;2022-07-19T06:48:56;16.10;;;10.48;;
71965;SDS011;59836;52.132;5.442;2022-07-19T06:51:23;16.48;;;11.88;;
71965;SDS011;59836;52.132;5.442;2022-07-19T06:53:49;14.23;;;12.50;;
71965;SDS011;59836;52.132;5.442;2022-07-19T06:56:16;14.23;;;11.35;;
71965;SDS011;59836;52.132;5.442;2022-07-19T06:58:42;13.97;;;11.67;;
71965;SDS011;59836;52.132;5.442;2022-07-19T07:01:08;12.95;;;11.70;;
71965;SDS011;59836;52.132;5.442;2022-07-19T07:03:36;13.57;;;12.13;;
71965;SDS011;59836;52.132;5.442;2022-07-19T07:06:03;15.15;;;11.35;;
71965;SDS011;59836;52.132;5.442;2022-07-19T07:08:30;13.23;;;11.85;;
71965;SDS011;59836;52.132;5.442;2022-07-19T07:10:57;16.57;;;11.33;;
71965;SDS011;59836;52.132;5.442;2022-07-19T07:13:23;16.40;;;12.90;;
71965;SDS011;59836;52.132;5.442;2022-07-19T07:15:50;13.35;;;11.93;;
71965;SDS011;59836;52.132;5.442;2022-07-19T07:18:16;15.23;;;13.63;;
71965;SDS011;59836;52.132;5.442;2022-07-19T07:20:42;16.85;;;12.90;;
71965;SDS011;59836;52.132;5.442;2022-07-19T07:23:09;18.20;;;13.80;;
71965;SDS011;59836;52.132;5.442;2022-07-19T07:25:35;18.10;;;13.23;;
71965;SDS011;59836;52.132;5.442;2022-07-19T07:28:02;14.73;;;12.00;;
71965;SDS011;59836;52.132;5.442;2022-07-19T07:30:28;14.10;;;11.77;;
71965;SDS011;59836;52.132;5.442;2022-07-19T07:32:55;15.05;;;11.35;;
71965;SDS011;59836;52.132;5.442;2022-07-19T07:35:21;13.87;;;11.73;;
71965;SDS011;59836;52.132;5.442;2022-07-19T07:37:48;15.68;;;11.00;;
71965;SDS011;59836;52.132;5.442;2022-07-19T07:40:14;16.55;;;11.38;;
71965;SDS011;59836;52.132;5.442;2022-07-19T07:42:41;13.95;;;9.95;;
71965;SDS011;59836;52.132;5.442;2022-07-19T07:45:07;11.40;;;9.82;;
71965;SDS011;59836;52.132;5.442;2022-07-19T07:47:36;15.20;;;10.20;;
71965;SDS011;59836;52.132;5.442;2022-07-19T07:50:04;12.15;;;10.27;;
71965;SDS011;59836;52.132;5.442;2022-07-19T07:52:32;17.40;;;10.77;;
71965;SDS011;59836;52.132;5.442;2022-07-19T07:54:58;12.02;;;10.48;;
71965;SDS011;59836;52.132;5.442;2022-07-19T07:57:45;15.25;;;9.70;;
71965;SDS011;59836;52.132;5.442;2022-07-19T08:00:12;13.70;;;7.67;;
71965;SDS011;59836;52.132;5.442;2022-07-19T08:02:40;12.50;;;8.20;;
71965;SDS011;59836;52.132;5.442;2022-07-19T08:05:11;16.42;;;9.32;;
71965;SDS011;59836;52.132;5.442;2022-07-19T08:07:38;11.07;;;8.55;;
71965;SDS011;59836;52.132;5.442;2022-07-19T08:10:05;12.60;;;9.35;;
71965;SDS011;59836;52.132;5.442;2022-07-19T08:12:33;10.77;;;8.60;;
71965;SDS011;59836;52.132;5.442;2022-07-19T08:15:00;12.00;;;8.57;;
71965;SDS011;59836;52.132;5.442;2022-07-19T08:17:27;14.23;;;8.52;;
71965;SDS011;59836;52.132;5.442;2022-07-19T08:19:54;10.52;;;8.32;;
71965;SDS011;59836;52.132;5.442;2022-07-19T08:22:20;11.77;;;8.68;;
71965;SDS011;59836;52.132;5.442;2022-07-19T08:24:47;11.37;;;7.67;;
71965;SDS011;59836;52.132;5.442;2022-07-19T08:27:13;13.15;;;9.32;;
71965;SDS011;59836;52.132;5.442;2022-07-19T08:29:40;7.95;;;6.88;;
71965;SDS011;59836;52.132;5.442;2022-07-19T08:32:06;10.65;;;8.13;;
71965;SDS011;59836;52.132;5.442;2022-07-19T08:34:33;11.23;;;6.97;;
71965;SDS011;59836;52.132;5.442;2022-07-19T08:36:59;9.73;;;6.87;;
71965;SDS011;59836;52.132;5.442;2022-07-19T08:39:26;10.85;;;6.07;;
71965;SDS011;59836;52.132;5.442;2022-07-19T08:41:53;9.07;;;4.95;;
71965;SDS011;59836;52.132;5.442;2022-07-19T08:44:19;9.25;;;4.40;;
71965;SDS011;59836;52.132;5.442;2022-07-19T08:46:47;7.00;;;3.67;;
71965;SDS011;59836;52.132;5.442;2022-07-19T08:49:15;7.17;;;3.60;;
71965;SDS011;59836;52.132;5.442;2022-07-19T08:51:42;7.07;;;3.17;;
71965;SDS011;59836;52.132;5.442;2022-07-19T08:54:09;6.97;;;3.35;;
71965;SDS011;59836;52.132;5.442;2022-07-19T08:56:35;5.88;;;2.92;;
71965;SDS011;59836;52.132;5.442;2022-07-19T08:59:21;3.88;;;3.10;;
71965;SDS011;59836;52.132;5.442;2022-07-19T09:01:49;4.90;;;2.90;;
71965;SDS011;59836;52.132;5.442;2022-07-19T09:04:20;5.88;;;2.85;;
71965;SDS011;59836;52.132;5.442;2022-07-19T09:06:52;4.88;;;2.78;;
71965;SDS011;59836;52.132;5.442;2022-07-19T09:09:20;4.35;;;2.70;;
71965;SDS011;59836;52.132;5.442;2022-07-19T09:11:50;3.88;;;2.80;;
71965;SDS011;59836;52.132;5.442;2022-07-19T09:14:22;5.47;;;2.57;;
71965;SDS011;59836;52.132;5.442;2022-07-19T09:17:04;4.97;;;3.10;;
71965;SDS011;59836;52.132;5.442;2022-07-19T09:19:44;6.28;;;2.63;;
71965;SDS011;59836;52.132;5.442;2022-07-19T09:22:12;5.63;;;2.70;;
71965;SDS011;59836;52.132;5.442;2022-07-19T09:24:45;3.78;;;2.45;;
71965;SDS011;59836;52.132;5.442;2022-07-19T09:27:17;5.50;;;2.73;;
71965;SDS011;59836;52.132;5.442;2022-07-19T09:29:45;4.93;;;2.45;;
71965;SDS011;59836;52.132;5.442;2022-07-19T09:32:19;5.03;;;2.60;;
71965;SDS011;59836;52.132;5.442;2022-07-19T09:34:51;5.13;;;2.75;;
71965;SDS011;59836;52.132;5.442;2022-07-19T09:37:22;5.00;;;2.55;;
71965;SDS011;59836;52.132;5.442;2022-07-19T09:39:55;5.73;;;2.77;;
71965;SDS011;59836;52.132;5.442;2022-07-19T09:42:39;4.38;;;2.70;;
71965;SDS011;59836;52.132;5.442;2022-07-19T09:45:08;4.57;;;2.90;;
71965;SDS011;59836;52.132;5.442;2022-07-19T09:47:37;4.38;;;2.95;;
71965;SDS011;59836;52.132;5.442;2022-07-19T09:50:06;4.32;;;2.90;;
71965;SDS011;59836;52.132;5.442;2022-07-19T09:52:35;6.77;;;2.90;;
71965;SDS011;59836;52.132;5.442;2022-07-19T09:55:11;4.55;;;2.50;;
71965;SDS011;59836;52.132;5.442;2022-07-19T09:57:39;5.25;;;3.05;;
71965;SDS011;59836;52.132;5.442;2022-07-19T10:00:12;5.60;;;2.90;;
71965;SDS011;59836;52.132;5.442;2022-07-19T10:02:54;5.95;;;3.10;;
71965;SDS011;59836;52.132;5.442;2022-07-19T10:05:26;3.20;;;2.20;;
71965;SDS011;59836;52.132;5.442;2022-07-19T10:07:54;6.28;;;3.55;;
71965;SDS011;59836;52.132;5.442;2022-07-19T10:10:21;5.15;;;2.78;;
71965;SDS011;59836;52.132;5.442;2022-07-19T10:12:49;5.90;;;2.90;;
71965;SDS011;59836;52.132;5.442;2022-07-19T10:15:17;4.43;;;2.75;;
71965;SDS011;59836;52.132;5.442;2022-07-19T10:17:58;4.00;;;2.83;;
71965;SDS011;59836;52.132;5.442;2022-07-19T10:20:30;5.72;;;2.65;;
71965;SDS011;59836;52.132;5.442;2022-07-19T10:22:58;6.93;;;2.88;;
71965;SDS011;59836;52.132;5.442;2022-07-19T10:25:39;5.55;;;2.65;;
71965;SDS011;59836;52.132;5.442;2022-07-19T10:28:26;3.55;;;2.63;;
71965;SDS011;59836;52.132;5.442;2022-07-19T10:31:25;3.53;;;2.50;;
71965;SDS011;59836;52.132;5.442;2022-07-19T10:34:00;4.85;;;3.03;;
71965;SDS011;59836;52.132;5.442;2022-07-19T10:36:32;4.82;;;2.55;;
71965;SDS011;59836;52.132;5.442;2022-07-19T10:42:15;3.15;;;2.10;;
71965;SDS011;59836;52.132;5.442;2022-07-19T10:47:57;5.45;;;3.20;;
71965;SDS011;59836;52.132;5.442;2022-07-19T10:50:12;6.32;;;2.85;;
71965;SDS011;59836;52.132;5.442;2022-07-19T10:52:48;4.72;;;2.35;;
71965;SDS011;59836;52.132;5.442;2022-07-19T10:57:53;6.93;;;2.90;;
71965;SDS011;59836;52.132;5.442;2022-07-19T11:00:40;8.20;;;3.42;;
71965;SDS011;59836;52.132;5.442;2022-07-19T11:08:17;4.38;;;2.72;;
71965;SDS011;59836;52.132;5.442;2022-07-19T11:10:44;5.00;;;2.63;;
71965;SDS011;59836;52.132;5.442;2022-07-19T11:13:15;6.68;;;3.40;;
71965;SDS011;59836;52.132;5.442;2022-07-19T11:15:42;4.80;;;2.58;;
71965;SDS011;59836;52.132;5.442;2022-07-19T11:18:20;7.70;;;2.92;;
71965;SDS011;59836;52.132;5.442;2022-07-19T11:20:47;5.95;;;2.72;;
71965;SDS011;59836;52.132;5.442;2022-07-19T11:23:16;4.83;;;3.00;;
71965;SDS011;59836;52.132;5.442;2022-07-19T11:25:44;6.03;;;3.60;;
71965;SDS011;59836;52.132;5.442;2022-07-19T11:28:19;7.18;;;4.07;;
71965;SDS011;59836;52.132;5.442;2022-07-19T11:30:49;6.30;;;3.08;;
71965;SDS011;59836;52.132;5.442;2022-07-19T11:33:17;5.97;;;2.83;;
71965;SDS011;59836;52.132;5.442;2022-07-19T11:36:20;7.03;;;3.60;;
71965;SDS011;59836;52.132;5.442;2022-07-19T11:38:47;4.93;;;2.53;;
71965;SDS011;59836;52.132;5.442;2022-07-19T11:43:51;3.13;;;2.55;;
71965;SDS011;59836;52.132;5.442;2022-07-19T11:46:20;7.38;;;2.50;;
71965;SDS011;59836;52.132;5.442;2022-07-19T11:48:48;4.67;;;2.83;;
71965;SDS011;59836;52.132;5.442;2022-07-19T11:51:16;3.78;;;3.17;;
71965;SDS011;59836;52.132;5.442;2022-07-19T11:53:43;5.07;;;2.70;;
71965;SDS011;59836;52.132;5.442;2022-07-19T11:56:17;5.22;;;2.95;;
71965;SDS011;59836;52.132;5.442;2022-07-19T11:58:45;8.38;;;3.22;;
71965;SDS011;59836;52.132;5.442;2022-07-19T12:01:13;6.50;;;2.90;;
71965;SDS011;59836;52.132;5.442;2022-07-19T12:03:39;6.55;;;2.72;;
71965;SDS011;59836;52.132;5.442;2022-07-19T12:06:07;4.63;;;2.58;;
71965;SDS011;59836;52.132;5.442;2022-07-19T12:08:37;6.45;;;2.80;;
71965;SDS011;59836;52.132;5.442;2022-07-19T12:11:17;4.55;;;2.88;;
71965;SDS011;59836;52.132;5.442;2022-07-19T12:13:51;6.03;;;2.93;;
71965;SDS011;59836;52.132;5.442;2022-07-19T12:16:20;4.47;;;2.85;;
71965;SDS011;59836;52.132;5.442;2022-07-19T12:29:21;4.03;;;2.10;;
71965;SDS011;59836;52.132;5.442;2022-07-19T12:31:57;2.78;;;2.20;;
71965;SDS011;59836;52.132;5.442;2022-07-19T12:34:26;5.78;;;1.90;;
71965;SDS011;59836;52.132;5.442;2022-07-19T12:36:53;4.80;;;2.53;;
71965;SDS011;59836;52.132;5.442;2022-07-19T12:39:28;4.70;;;2.50;;
71965;SDS011;59836;52.132;5.442;2022-07-19T12:41:56;5.07;;;2.67;;
71965;SDS011;59836;52.132;5.442;2022-07-19T12:44:30;4.95;;;2.55;;
71965;SDS011;59836;52.132;5.442;2022-07-19T12:46:57;3.95;;;1.75;;
71965;SDS011;59836;52.132;5.442;2022-07-19T12:49:48;4.47;;;2.40;;
71965;SDS011;59836;52.132;5.442;2022-07-19T12:52:27;4.50;;;2.10;;
71965;SDS011;59836;52.132;5.442;2022-07-19T12:54:53;3.72;;;2.17;;
71965;SDS011;59836;52.132;5.442;2022-07-19T12:57:20;5.00;;;2.13;;
71965;SDS011;59836;52.132;5.442;2022-07-19T12:59:46;4.43;;;1.95;;
71965;SDS011;59836;52.132;5.442;2022-07-19T13:02:13;3.97;;;2.40;;
71965;SDS011;59836;52.132;5.442;2022-07-19T13:04:42;3.87;;;2.13;;
71965;SDS011;59836;52.132;5.442;2022-07-19T13:07:13;6.20;;;2.20;;
71965;SDS011;59836;52.132;5.442;2022-07-19T13:09:40;4.00;;;2.33;;
71965;SDS011;59836;52.132;5.442;2022-07-19T13:12:07;3.30;;;2.10;;
71965;SDS011;59836;52.132;5.442;2022-07-19T13:14:34;3.10;;;2.30;;
71965;SDS011;59836;52.132;5.442;2022-07-19T13:17:02;3.07;;;1.77;;
71965;SDS011;59836;52.132;5.442;2022-07-19T13:19:29;4.05;;;2.20;;
71965;SDS011;59836;52.132;5.442;2022-07-19T13:21:55;7.43;;;2.78;;
71965;SDS011;59836;52.132;5.442;2022-07-19T13:24:22;5.95;;;2.33;;
71965;SDS011;59836;52.132;5.442;2022-07-19T13:27:09;5.93;;;2.55;;
71965;SDS011;59836;52.132;5.442;2022-07-19T13:29:35;5.20;;;2.60;;
71965;SDS011;59836;52.132;5.442;2022-07-19T13:32:04;5.18;;;2.60;;
71965;SDS011;59836;52.132;5.442;2022-07-19T13:34:32;5.25;;;2.30;;
71965;SDS011;59836;52.132;5.442;2022-07-19T13:36:59;4.93;;;2.40;;
71965;SDS011;59836;52.132;5.442;2022-07-19T13:39:25;2.83;;;2.17;;
71965;SDS011;59836;52.132;5.442;2022-07-19T13:41:52;5.37;;;2.20;;
71965;SDS011;59836;52.132;5.442;2022-07-19T13:44:18;4.40;;;2.40;;
71965;SDS011;59836;52.132;5.442;2022-07-19T13:46:45;8.13;;;2.40;;
71965;SDS011;59836;52.132;5.442;2022-07-19T13:49:11;4.03;;;2.13;;
71965;SDS011;59836;52.132;5.442;2022-07-19T13:51:41;4.00;;;2.40;;
71965;SDS011;59836;52.132;5.442;2022-07-19T13:54:07;6.30;;;2.53;;
71965;SDS011;59836;52.132;5.442;2022-07-19T13:56:34;3.65;;;2.60;;
71965;SDS011;59836;52.132;5.442;2022-07-19T13:59:01;4.45;;;2.50;;
71965;SDS011;59836;52.132;5.442;2022-07-19T14:01:29;6.20;;;2.20;;
71965;SDS011;59836;52.132;5.442;2022-07-19T14:04:14;3.33;;;2.45;;
71965;SDS011;59836;52.132;5.442;2022-07-19T14:06:47;6.33;;;2.17;;
71965;SDS011;59836;52.132;5.442;2022-07-19T14:09:14;4.15;;;2.53;;
71965;SDS011;59836;52.132;5.442;2022-07-19T14:11:40;4.80;;;2.40;;
71965;SDS011;59836;52.132;5.442;2022-07-19T14:14:07;4.10;;;2.67;;
71965;SDS011;59836;52.132;5.442;2022-07-19T14:16:34;2.85;;;2.55;;
71965;SDS011;59836;52.132;5.442;2022-07-19T14:19:01;7.87;;;2.70;;
71965;SDS011;59836;52.132;5.442;2022-07-19T14:21:28;3.25;;;2.20;;
71965;SDS011;59836;52.132;5.442;2022-07-19T14:24:00;5.03;;;2.75;;
71965;SDS011;59836;52.132;5.442;2022-07-19T14:26:27;5.72;;;2.60;;
71965;SDS011;59836;52.132;5.442;2022-07-19T14:28:53;2.80;;;2.55;;
71965;SDS011;59836;52.132;5.442;2022-07-19T14:31:20;5.93;;;1.90;;
71965;SDS011;59836;52.132;5.442;2022-07-19T14:33:47;3.40;;;2.10;;
71965;SDS011;59836;52.132;5.442;2022-07-19T14:36:13;2.95;;;2.22;;
71965;SDS011;59836;52.132;5.442;2022-07-19T14:38:40;4.60;;;2.83;;
71965;SDS011;59836;52.132;5.442;2022-07-19T14:41:06;7.88;;;2.55;;
71965;SDS011;59836;52.132;5.442;2022-07-19T14:43:33;3.60;;;2.47;;
71965;SDS011;59836;52.132;5.442;2022-07-19T14:46:00;7.25;;;2.70;;
71965;SDS011;59836;52.132;5.442;2022-07-19T14:48:26;3.85;;;2.75;;
71965;SDS011;59836;52.132;5.442;2022-07-19T14:50:52;4.60;;;2.60;;
71965;SDS011;59836;52.132;5.442;2022-07-19T14:53:19;3.65;;;2.50;;
71965;SDS011;59836;52.132;5.442;2022-07-19T14:55:46;3.03;;;2.30;;
71965;SDS011;59836;52.132;5.442;2022-07-19T14:58:12;4.35;;;2.40;;
71965;SDS011;59836;52.132;5.442;2022-07-19T15:00:38;4.57;;;2.47;;
71965;SDS011;59836;52.132;5.442;2022-07-19T15:03:05;3.20;;;2.53;;
71965;SDS011;59836;52.132;5.442;2022-07-19T15:05:32;5.35;;;2.90;;
71965;SDS011;59836;52.132;5.442;2022-07-19T15:07:58;3.27;;;2.77;;
71965;SDS011;59836;52.132;5.442;2022-07-19T15:10:25;6.10;;;2.47;;
71965;SDS011;59836;52.132;5.442;2022-07-19T15:12:51;5.55;;;2.60;;